sensor_id;sensor_type;location;lat;lon;timestamp;pressure;altitude;pressure_sealevel;temperature;humidity
33781;BME280;20097;50.832;19.100;2023-03-16T00:01:06;98497.78;;;-1.69;100.00
33781;BME280;20097;50.832;19.100;2023-03-16T00:06:11;98502.81;;;-1.67;100.00
33781;BME280;20097;50.832;19.100;2023-03-16T00:11:15;98506.28;;;-1.68;100.00
33781;BME280;20097;50.832;19.100;2023-03-16T00:16:20;98507.38;;;-1.72;100.00
33781;BME280;20097;50.832;19.100;2023-03-16T00:21:24;98509.22;;;-1.74;100.00
33781;BME280;20097;50.832;19.100;2023-03-16T00:26:28;98512.03;;;-1.79;100.00
33781;BME280;20097;50.832;19.100;2023-03-16T00:31:35;98508.84;;;-1.96;100.00
33781;BME280;20097;50.832;19.100;2023-03-16T00:36:39;98510.06;;;-2.02;100.00
33781;BME280;20097;50.832;19.100;2023-03-16T00:41:44;98505.09;;;-2.05;100.00
33781;BME280;20097;50.832;19.100;2023-03-16T00:46:49;98505.00;;;-2.03;100.00
33781;BME280;20097;50.832;19.100;2023-03-16T00:51:53;98506.41;;;-2.12;100.00
33781;BME280;20097;50.832;19.100;2023-03-16T00:56:58;98500.53;;;-2.14;100.00
33781;BME280;20097;50.832;19.100;2023-03-16T01:02:04;98506.03;;;-2.20;100.00
33781;BME280;20097;50.832;19.100;2023-03-16T01:07:11;98508.81;;;-2.24;100.00
33781;BME280;20097;50.832;19.100;2023-03-16T01:12:17;98509.28;;;-2.18;100.00
33781;BME280;20097;50.832;19.100;2023-03-16T01:17:23;98512.50;;;-2.14;100.00
33781;BME280;20097;50.832;19.100;2023-03-16T01:22:27;98506.53;;;-2.29;100.00
33781;BME280;20097;50.832;19.100;2023-03-16T01:27:31;98509.28;;;-2.32;100.00
33781;BME280;20097;50.832;19.100;2023-03-16T01:32:36;98518.13;;;-2.37;100.00
33781;BME280;20097;50.832;19.100;2023-03-16T01:37:42;98507.09;;;-2.38;100.00
33781;BME280;20097;50.832;19.100;2023-03-16T01:42:59;98517.25;;;-2.52;100.00
33781;BME280;20097;50.832;19.100;2023-03-16T01:48:08;98513.81;;;-2.51;100.00
33781;BME280;20097;50.832;19.100;2023-03-16T01:53:13;98517.16;;;-2.50;100.00
33781;BME280;20097;50.832;19.100;2023-03-16T01:58:17;98517.09;;;-2.49;100.00
33781;BME280;20097;50.832;19.100;2023-03-16T02:03:24;98519.81;;;-2.52;100.00
33781;BME280;20097;50.832;19.100;2023-03-16T02:08:35;98524.31;;;-2.55;100.00
33781;BME280;20097;50.832;19.100;2023-03-16T02:13:40;98527.84;;;-2.58;100.00
33781;BME280;20097;50.832;19.100;2023-03-16T02:18:47;98535.97;;;-2.51;100.00
33781;BME280;20097;50.832;19.100;2023-03-16T02:23:52;98543.72;;;-2.53;100.00
33781;BME280;20097;50.832;19.100;2023-03-16T02:29:04;98547.91;;;-2.52;100.00
33781;BME280;20097;50.832;19.100;2023-03-16T02:34:11;98550.75;;;-2.56;100.00
33781;BME280;20097;50.832;19.100;2023-03-16T02:39:16;98563.50;;;-2.41;100.00
33781;BME280;20097;50.832;19.100;2023-03-16T02:44:22;98571.06;;;-2.39;100.00
33781;BME280;20097;50.832;19.100;2023-03-16T02:49:33;98575.94;;;-2.50;100.00
33781;BME280;20097;50.832;19.100;2023-03-16T02:54:38;98578.03;;;-2.57;100.00
33781;BME280;20097;50.832;19.100;2023-03-16T02:59:44;98583.31;;;-2.60;100.00
33781;BME280;20097;50.832;19.100;2023-03-16T03:04:49;98589.66;;;-2.37;100.00
33781;BME280;20097;50.832;19.100;2023-03-16T03:09:58;98585.63;;;-2.55;100.00
33781;BME280;20097;50.832;19.100;2023-03-16T03:15:08;98593.78;;;-2.49;100.00
33781;BME280;20097;50.832;19.100;2023-03-16T03:20:22;98602.09;;;-2.61;100.00
33781;BME280;20097;50.832;19.100;2023-03-16T03:25:28;98602.44;;;-2.67;100.00
33781;BME280;20097;50.832;19.100;2023-03-16T03:30:32;98605.41;;;-2.59;100.00
33781;BME280;20097;50.832;19.100;2023-03-16T03:35:39;98601.13;;;-2.74;100.00
33781;BME280;20097;50.832;19.100;2023-03-16T03:40:44;98622.16;;;-2.69;100.00
33781;BME280;20097;50.832;19.100;2023-03-16T03:45:54;98624.53;;;-2.66;100.00
33781;BME280;20097;50.832;19.100;2023-03-16T03:51:01;98622.56;;;-2.76;100.00
33781;BME280;20097;50.832;19.100;2023-03-16T03:56:27;98628.09;;;-2.68;100.00
33781;BME280;20097;50.832;19.100;2023-03-16T04:01:32;98636.88;;;-2.58;100.00
33781;BME280;20097;50.832;19.100;2023-03-16T04:06:37;98632.28;;;-2.83;100.00
33781;BME280;20097;50.832;19.100;2023-03-16T04:11:42;98651.06;;;-2.84;100.00
33781;BME280;20097;50.832;19.100;2023-03-16T04:16:46;98640.34;;;-2.91;100.00
33781;BME280;20097;50.832;19.100;2023-03-16T04:21:52;98642.81;;;-2.89;100.00
33781;BME280;20097;50.832;19.100;2023-03-16T04:26:56;98647.34;;;-2.94;100.00
33781;BME280;20097;50.832;19.100;2023-03-16T04:32:00;98650.91;;;-2.97;100.00
33781;BME280;20097;50.832;19.100;2023-03-16T04:37:07;98650.22;;;-3.00;100.00
33781;BME280;20097;50.832;19.100;2023-03-16T04:42:13;98652.19;;;-3.05;100.00
33781;BME280;20097;50.832;19.100;2023-03-16T04:47:18;98648.97;;;-3.09;100.00
33781;BME280;20097;50.832;19.100;2023-03-16T04:52:23;98654.91;;;-3.08;100.00
33781;BME280;20097;50.832;19.100;2023-03-16T04:57:28;98663.50;;;-2.94;100.00
33781;BME280;20097;50.832;19.100;2023-03-16T05:02:32;98663.91;;;-3.01;100.00
33781;BME280;20097;50.832;19.100;2023-03-16T05:07:38;98668.34;;;-3.05;100.00
33781;BME280;20097;50.832;19.100;2023-03-16T05:12:43;98675.34;;;-3.08;100.00
33781;BME280;20097;50.832;19.100;2023-03-16T05:17:48;98681.97;;;-2.89;100.00
33781;BME280;20097;50.832;19.100;2023-03-16T05:22:54;98689.44;;;-2.86;100.00
33781;BME280;20097;50.832;19.100;2023-03-16T05:28:04;98689.03;;;-2.78;100.00
33781;BME280;20097;50.832;19.100;2023-03-16T05:33:18;98694.22;;;-2.48;100.00
33781;BME280;20097;50.832;19.100;2023-03-16T05:38:28;98696.22;;;-2.38;100.00
33781;BME280;20097;50.832;19.100;2023-03-16T05:43:34;98706.31;;;-2.21;100.00
33781;BME280;20097;50.832;19.100;2023-03-16T05:48:38;98710.59;;;-2.06;100.00
33781;BME280;20097;50.832;19.100;2023-03-16T05:53:46;98714.78;;;-1.89;100.00
33781;BME280;20097;50.832;19.100;2023-03-16T05:59:03;98725.66;;;-1.86;100.00
33781;BME280;20097;50.832;19.100;2023-03-16T06:04:08;98722.94;;;-1.69;100.00
33781;BME280;20097;50.832;19.100;2023-03-16T06:09:17;98730.50;;;-1.52;100.00
33781;BME280;20097;50.832;19.100;2023-03-16T06:14:21;98735.28;;;-1.31;100.00
33781;BME280;20097;50.832;19.100;2023-03-16T06:19:29;98743.38;;;-1.09;100.00
33781;BME280;20097;50.832;19.100;2023-03-16T06:24:37;98752.78;;;-0.96;100.00
33781;BME280;20097;50.832;19.100;2023-03-16T06:29:41;98747.47;;;-0.79;100.00
33781;BME280;20097;50.832;19.100;2023-03-16T06:34:46;98752.13;;;-0.71;100.00
33781;BME280;20097;50.832;19.100;2023-03-16T06:39:52;98752.59;;;-0.51;100.00
33781;BME280;20097;50.832;19.100;2023-03-16T06:44:56;98770.69;;;-0.40;100.00
33781;BME280;20097;50.832;19.100;2023-03-16T06:50:01;98769.91;;;-0.28;100.00
33781;BME280;20097;50.832;19.100;2023-03-16T06:55:07;98768.88;;;-0.11;100.00
33781;BME280;20097;50.832;19.100;2023-03-16T07:00:17;98772.75;;;0.09;100.00
33781;BME280;20097;50.832;19.100;2023-03-16T07:05:22;98770.59;;;0.29;100.00
33781;BME280;20097;50.832;19.100;2023-03-16T07:10:27;98787.75;;;0.41;100.00
33781;BME280;20097;50.832;19.100;2023-03-16T07:15:34;98791.19;;;0.54;100.00
33781;BME280;20097;50.832;19.100;2023-03-16T07:20:40;98785.47;;;0.76;100.00
33781;BME280;20097;50.832;19.100;2023-03-16T07:25:46;98784.66;;;0.88;100.00
33781;BME280;20097;50.832;19.100;2023-03-16T07:30:52;98784.38;;;1.05;100.00
33781;BME280;20097;50.832;19.100;2023-03-16T07:36:10;98790.44;;;1.16;100.00
33781;BME280;20097;50.832;19.100;2023-03-16T07:41:22;98790.31;;;1.30;100.00
33781;BME280;20097;50.832;19.100;2023-03-16T07:46:26;98806.06;;;1.51;100.00
33781;BME280;20097;50.832;19.100;2023-03-16T07:51:31;98806.34;;;1.59;100.00
33781;BME280;20097;50.832;19.100;2023-03-16T07:56:37;98797.44;;;1.76;100.00
33781;BME280;20097;50.832;19.100;2023-03-16T08:02:02;98806.06;;;1.87;100.00
33781;BME280;20097;50.832;19.100;2023-03-16T08:07:07;98804.09;;;2.03;100.00
33781;BME280;20097;50.832;19.100;2023-03-16T08:12:25;98804.78;;;2.05;100.00
33781;BME280;20097;50.832;19.100;2023-03-16T08:17:30;98810.97;;;2.26;100.00
33781;BME280;20097;50.832;19.100;2023-03-16T08:22:38;98808.19;;;2.53;100.00
33781;BME280;20097;50.832;19.100;2023-03-16T08:27:43;98818.03;;;2.59;100.00
33781;BME280;20097;50.832;19.100;2023-03-16T08:32:48;98820.72;;;2.81;100.00
33781;BME280;20097;50.832;19.100;2023-03-16T08:37:53;98824.72;;;2.96;100.00
33781;BME280;20097;50.832;19.100;2023-03-16T08:42:59;98824.03;;;2.94;100.00
33781;BME280;20097;50.832;19.100;2023-03-16T08:48:04;98833.25;;;3.20;100.00
33781;BME280;20097;50.832;19.100;2023-03-16T08:53:11;98833.03;;;3.45;100.00
33781;BME280;20097;50.832;19.100;2023-03-16T08:58:16;98844.41;;;3.32;100.00
33781;BME280;20097;50.832;19.100;2023-03-16T09:03:21;98846.75;;;3.46;100.00
33781;BME280;20097;50.832;19.100;2023-03-16T09:08:25;98849.94;;;3.60;100.00
33781;BME280;20097;50.832;19.100;2023-03-16T09:13:30;98852.28;;;3.96;100.00
33781;BME280;20097;50.832;19.100;2023-03-16T09:18:35;98858.38;;;4.06;97.97
33781;BME280;20097;50.832;19.100;2023-03-16T09:23:39;98859.63;;;4.34;97.74
33781;BME280;20097;50.832;19.100;2023-03-16T09:28:46;98858.38;;;4.60;94.08
33781;BME280;20097;50.832;19.100;2023-03-16T09:33:51;98863.72;;;4.37;96.71
33781;BME280;20097;50.832;19.100;2023-03-16T09:38:55;98860.53;;;4.33;95.06
33781;BME280;20097;50.832;19.100;2023-03-16T09:44:04;98860.19;;;4.38;92.00
33781;BME280;20097;50.832;19.100;2023-03-16T09:49:15;98860.66;;;4.32;91.79
33781;BME280;20097;50.832;19.100;2023-03-16T09:54:24;98869.59;;;4.70;86.78
33781;BME280;20097;50.832;19.100;2023-03-16T09:59:33;98875.84;;;4.14;82.41
33781;BME280;20097;50.832;19.100;2023-03-16T10:04:40;98865.13;;;4.41;81.42
33781;BME280;20097;50.832;19.100;2023-03-16T10:09:51;98867.25;;;4.99;78.65
33781;BME280;20097;50.832;19.100;2023-03-16T10:15:02;98871.84;;;4.64;74.88
33781;BME280;20097;50.832;19.100;2023-03-16T10:20:12;98878.34;;;4.58;74.83
33781;BME280;20097;50.832;19.100;2023-03-16T10:25:21;98880.03;;;4.80;72.70
33781;BME280;20097;50.832;19.100;2023-03-16T10:30:29;98882.22;;;5.16;70.33
33781;BME280;20097;50.832;19.100;2023-03-16T10:35:39;98886.22;;;5.40;68.96
33781;BME280;20097;50.832;19.100;2023-03-16T10:40:45;98886.78;;;5.44;69.40
33781;BME280;20097;50.832;19.100;2023-03-16T10:45:51;98892.78;;;5.44;65.44
33781;BME280;20097;50.832;19.100;2023-03-16T10:50:57;98905.38;;;5.79;63.74
33781;BME280;20097;50.832;19.100;2023-03-16T10:56:08;98905.06;;;6.33;62.95
33781;BME280;20097;50.832;19.100;2023-03-16T11:01:20;98909.38;;;6.13;61.14
33781;BME280;20097;50.832;19.100;2023-03-16T11:06:26;98899.84;;;6.72;62.32
33781;BME280;20097;50.832;19.100;2023-03-16T11:11:32;98902.44;;;6.91;57.80
33781;BME280;20097;50.832;19.100;2023-03-16T11:16:39;98917.16;;;6.62;55.38
33781;BME280;20097;50.832;19.100;2023-03-16T11:21:49;98912.63;;;6.45;57.15
33781;BME280;20097;50.832;19.100;2023-03-16T11:26:58;98897.09;;;6.64;59.24
33781;BME280;20097;50.832;19.100;2023-03-16T11:32:09;98893.94;;;6.61;59.46
33781;BME280;20097;50.832;19.100;2023-03-16T11:37:23;98891.91;;;6.74;58.79
33781;BME280;20097;50.832;19.100;2023-03-16T11:42:34;98898.50;;;7.07;58.19
33781;BME280;20097;50.832;19.100;2023-03-16T11:47:55;98891.13;;;7.12;59.08
33781;BME280;20097;50.832;19.100;2023-03-16T11:53:06;98885.88;;;7.50;58.67
33781;BME280;20097;50.832;19.100;2023-03-16T11:58:22;98893.97;;;7.28;56.58
33781;BME280;20097;50.832;19.100;2023-03-16T12:03:41;98898.84;;;6.45;53.01
33781;BME280;20097;50.832;19.100;2023-03-16T12:09:03;98909.16;;;6.84;52.80
33781;BME280;20097;50.832;19.100;2023-03-16T12:14:13;98906.63;;;7.69;51.83
33781;BME280;20097;50.832;19.100;2023-03-16T12:19:23;98912.59;;;8.25;52.48
33781;BME280;20097;50.832;19.100;2023-03-16T12:24:34;98901.22;;;7.05;52.64
33781;BME280;20097;50.832;19.100;2023-03-16T12:29:47;98900.44;;;6.36;55.22
33781;BME280;20097;50.832;19.100;2023-03-16T12:35:01;98894.03;;;6.31;55.74
33781;BME280;20097;50.832;19.100;2023-03-16T12:40:13;98888.63;;;6.13;55.03
33781;BME280;20097;50.832;19.100;2023-03-16T12:45:28;98890.44;;;6.71;53.15
33781;BME280;20097;50.832;19.100;2023-03-16T12:50:48;98899.13;;;7.56;49.87
33781;BME280;20097;50.832;19.100;2023-03-16T12:55:54;98906.31;;;8.18;48.97
33781;BME280;20097;50.832;19.100;2023-03-16T13:00:59;98918.25;;;8.48;49.16
33781;BME280;20097;50.832;19.100;2023-03-16T13:06:14;98921.41;;;7.59;48.60
33781;BME280;20097;50.832;19.100;2023-03-16T13:11:19;98900.38;;;7.52;51.79
33781;BME280;20097;50.832;19.100;2023-03-16T13:16:25;98898.78;;;8.24;51.16
33781;BME280;20097;50.832;19.100;2023-03-16T13:21:36;98915.88;;;8.27;49.77
33781;BME280;20097;50.832;19.100;2023-03-16T13:26:41;98916.13;;;7.32;49.84
33781;BME280;20097;50.832;19.100;2023-03-16T13:31:48;98908.59;;;7.00;51.10
33781;BME280;20097;50.832;19.100;2023-03-16T13:36:55;98901.44;;;7.50;51.01
33781;BME280;20097;50.832;19.100;2023-03-16T13:42:02;98918.34;;;7.92;50.02
33781;BME280;20097;50.832;19.100;2023-03-16T13:47:11;98908.59;;;7.29;50.72
33781;BME280;20097;50.832;19.100;2023-03-16T13:52:23;98913.38;;;7.43;51.04
33781;BME280;20097;50.832;19.100;2023-03-16T13:57:29;98903.84;;;8.16;51.06
33781;BME280;20097;50.832;19.100;2023-03-16T14:02:39;98914.00;;;8.91;49.33
33781;BME280;20097;50.832;19.100;2023-03-16T14:07:46;98907.56;;;8.14;48.95
33781;BME280;20097;50.832;19.100;2023-03-16T14:12:52;98907.44;;;7.79;49.08
33781;BME280;20097;50.832;19.100;2023-03-16T14:18:07;98898.38;;;6.98;50.30
33781;BME280;20097;50.832;19.100;2023-03-16T14:23:21;98901.06;;;7.35;50.87
33781;BME280;20097;50.832;19.100;2023-03-16T14:28:27;98891.63;;;7.44;51.87
33781;BME280;20097;50.832;19.100;2023-03-16T14:33:35;98881.41;;;6.75;52.81
33781;BME280;20097;50.832;19.100;2023-03-16T14:38:43;98888.72;;;6.32;54.66
33781;BME280;20097;50.832;19.100;2023-03-16T14:43:50;98886.88;;;6.14;55.32
33781;BME280;20097;50.832;19.100;2023-03-16T14:49:00;98884.78;;;5.98;56.51
33781;BME280;20097;50.832;19.100;2023-03-16T14:54:11;98879.47;;;5.79;57.19
33781;BME280;20097;50.832;19.100;2023-03-16T14:59:15;98888.13;;;5.89;57.44
33781;BME280;20097;50.832;19.100;2023-03-16T15:04:23;98874.75;;;6.24;56.76
33781;BME280;20097;50.832;19.100;2023-03-16T15:09:34;98879.22;;;6.12;55.83
33781;BME280;20097;50.832;19.100;2023-03-16T15:14:38;98882.69;;;6.32;54.78
33781;BME280;20097;50.832;19.100;2023-03-16T15:20:00;98882.28;;;6.27;54.53
33781;BME280;20097;50.832;19.100;2023-03-16T15:25:17;98887.75;;;6.33;53.39
33781;BME280;20097;50.832;19.100;2023-03-16T15:30:24;98890.91;;;6.37;52.86
33781;BME280;20097;50.832;19.100;2023-03-16T15:35:28;98889.00;;;6.39;52.55
33781;BME280;20097;50.832;19.100;2023-03-16T15:40:34;98889.97;;;5.98;53.30
33781;BME280;20097;50.832;19.100;2023-03-16T15:45:39;98887.88;;;5.92;54.52
33781;BME280;20097;50.832;19.100;2023-03-16T15:50:45;98887.72;;;5.94;54.82
33781;BME280;20097;50.832;19.100;2023-03-16T15:55:57;98893.91;;;6.02;54.88
33781;BME280;20097;50.832;19.100;2023-03-16T16:01:05;98895.56;;;6.03;54.52
33781;BME280;20097;50.832;19.100;2023-03-16T16:06:10;98897.78;;;5.87;55.26
33781;BME280;20097;50.832;19.100;2023-03-16T16:11:16;98901.91;;;5.90;55.97
33781;BME280;20097;50.832;19.100;2023-03-16T16:16:25;98901.91;;;5.90;54.59
33781;BME280;20097;50.832;19.100;2023-03-16T16:21:29;98908.72;;;5.91;54.56
33781;BME280;20097;50.832;19.100;2023-03-16T16:26:36;98913.41;;;5.76;55.40
33781;BME280;20097;50.832;19.100;2023-03-16T16:31:54;98916.00;;;5.55;56.66
33781;BME280;20097;50.832;19.100;2023-03-16T16:36:59;98909.31;;;5.32;58.74
33781;BME280;20097;50.832;19.100;2023-03-16T16:42:04;98912.41;;;4.95;59.96
33781;BME280;20097;50.832;19.100;2023-03-16T16:47:16;98911.78;;;4.71;61.71
33781;BME280;20097;50.832;19.100;2023-03-16T16:52:21;98902.41;;;4.16;64.20
33781;BME280;20097;50.832;19.100;2023-03-16T16:57:27;98894.75;;;3.70;66.19
33781;BME280;20097;50.832;19.100;2023-03-16T17:02:37;98891.44;;;3.46;67.09
33781;BME280;20097;50.832;19.100;2023-03-16T17:07:44;98897.72;;;3.20;68.47
33781;BME280;20097;50.832;19.100;2023-03-16T17:12:49;98892.06;;;3.15;69.28
33781;BME280;20097;50.832;19.100;2023-03-16T17:17:58;98899.53;;;2.72;72.41
33781;BME280;20097;50.832;19.100;2023-03-16T17:23:17;98907.53;;;2.57;73.28
33781;BME280;20097;50.832;19.100;2023-03-16T17:28:27;98910.09;;;2.21;76.96
33781;BME280;20097;50.832;19.100;2023-03-16T17:33:33;98912.41;;;2.13;77.65
33781;BME280;20097;50.832;19.100;2023-03-16T17:38:37;98912.78;;;2.19;77.40
33781;BME280;20097;50.832;19.100;2023-03-16T17:43:43;98910.28;;;1.82;79.26
33781;BME280;20097;50.832;19.100;2023-03-16T17:48:47;98905.31;;;1.54;81.97
33781;BME280;20097;50.832;19.100;2023-03-16T17:53:52;98915.81;;;1.38;82.80
33781;BME280;20097;50.832;19.100;2023-03-16T17:58:59;98934.63;;;1.38;82.07
33781;BME280;20097;50.832;19.100;2023-03-16T18:04:08;98937.34;;;1.50;80.03
33781;BME280;20097;50.832;19.100;2023-03-16T18:09:19;98940.41;;;1.42;82.20
33781;BME280;20097;50.832;19.100;2023-03-16T18:14:31;98940.75;;;1.11;86.19
33781;BME280;20097;50.832;19.100;2023-03-16T18:19:37;98947.25;;;1.16;85.56
33781;BME280;20097;50.832;19.100;2023-03-16T18:24:41;98949.28;;;1.11;87.32
33781;BME280;20097;50.832;19.100;2023-03-16T18:29:48;98949.97;;;1.01;89.71
33781;BME280;20097;50.832;19.100;2023-03-16T18:34:52;98956.53;;;0.92;88.87
33781;BME280;20097;50.832;19.100;2023-03-16T18:39:57;98957.50;;;0.77;87.55
33781;BME280;20097;50.832;19.100;2023-03-16T18:45:03;98955.13;;;0.74;87.99
33781;BME280;20097;50.832;19.100;2023-03-16T18:50:14;98959.72;;;0.69;89.69
33781;BME280;20097;50.832;19.100;2023-03-16T18:55:22;98966.91;;;0.64;88.59
33781;BME280;20097;50.832;19.100;2023-03-16T19:00:28;98961.91;;;0.49;88.68
33781;BME280;20097;50.832;19.100;2023-03-16T19:05:34;98962.44;;;0.40;92.76
33781;BME280;20097;50.832;19.100;2023-03-16T19:10:41;98967.19;;;0.46;94.68
33781;BME280;20097;50.832;19.100;2023-03-16T19:15:51;98969.88;;;0.44;94.36
33781;BME280;20097;50.832;19.100;2023-03-16T19:20:55;98977.41;;;0.33;96.20
33781;BME280;20097;50.832;19.100;2023-03-16T19:25:59;98981.44;;;0.37;93.45
33781;BME280;20097;50.832;19.100;2023-03-16T19:31:13;98986.69;;;0.36;93.70
33781;BME280;20097;50.832;19.100;2023-03-16T19:36:20;98985.69;;;0.24;93.46
33781;BME280;20097;50.832;19.100;2023-03-16T19:41:26;98985.19;;;0.32;93.73
33781;BME280;20097;50.832;19.100;2023-03-16T19:46:33;98985.69;;;0.24;93.28
33781;BME280;20097;50.832;19.100;2023-03-16T19:51:38;98986.03;;;0.32;93.94
33781;BME280;20097;50.832;19.100;2023-03-16T19:56:42;98983.75;;;0.14;95.42
33781;BME280;20097;50.832;19.100;2023-03-16T20:01:48;98981.81;;;0.17;94.37
33781;BME280;20097;50.832;19.100;2023-03-16T20:06:52;98989.63;;;0.02;92.79
33781;BME280;20097;50.832;19.100;2023-03-16T20:11:57;98987.69;;;0.05;94.30
33781;BME280;20097;50.832;19.100;2023-03-16T20:17:02;98988.25;;;-0.18;94.60
33781;BME280;20097;50.832;19.100;2023-03-16T20:22:10;98986.66;;;-0.21;95.75
33781;BME280;20097;50.832;19.100;2023-03-16T20:27:20;98988.69;;;-0.12;97.05
33781;BME280;20097;50.832;19.100;2023-03-16T20:32:29;98998.97;;;-0.12;96.71
33781;BME280;20097;50.832;19.100;2023-03-16T20:37:34;98992.44;;;-0.31;99.63
33781;BME280;20097;50.832;19.100;2023-03-16T20:42:38;98998.19;;;-0.28;100.00
33781;BME280;20097;50.832;19.100;2023-03-16T20:47:45;99000.50;;;-0.23;100.00
33781;BME280;20097;50.832;19.100;2023-03-16T20:52:49;99003.78;;;-0.21;100.00
33781;BME280;20097;50.832;19.100;2023-03-16T20:57:53;99010.69;;;-0.51;100.00
33781;BME280;20097;50.832;19.100;2023-03-16T21:03:02;99019.34;;;-0.38;100.00
33781;BME280;20097;50.832;19.100;2023-03-16T21:08:07;99012.38;;;-0.36;100.00
33781;BME280;20097;50.832;19.100;2023-03-16T21:13:17;99019.59;;;-0.72;100.00
33781;BME280;20097;50.832;19.100;2023-03-16T21:18:23;99016.16;;;-0.87;100.00
33781;BME280;20097;50.832;19.100;2023-03-16T21:23:27;99020.66;;;-1.06;100.00
33781;BME280;20097;50.832;19.100;2023-03-16T21:28:31;99018.16;;;-1.23;100.00
33781;BME280;20097;50.832;19.100;2023-03-16T21:33:38;99026.19;;;-1.13;100.00
33781;BME280;20097;50.832;19.100;2023-03-16T21:38:44;99019.25;;;-1.11;100.00
33781;BME280;20097;50.832;19.100;2023-03-16T21:43:48;99004.69;;;-1.26;100.00
33781;BME280;20097;50.832;19.100;2023-03-16T21:48:54;99002.28;;;-0.98;100.00
33781;BME280;20097;50.832;19.100;2023-03-16T21:53:58;99004.38;;;-1.20;100.00
33781;BME280;20097;50.832;19.100;2023-03-16T21:59:03;99013.69;;;-1.04;100.00
33781;BME280;20097;50.832;19.100;2023-03-16T22:04:13;99007.66;;;-1.03;100.00
33781;BME280;20097;50.832;19.100;2023-03-16T22:09:19;98999.25;;;-1.05;100.00
33781;BME280;20097;50.832;19.100;2023-03-16T22:14:24;98991.81;;;-1.09;100.00
33781;BME280;20097;50.832;19.100;2023-03-16T22:19:30;98981.81;;;-1.14;100.00
33781;BME280;20097;50.832;19.100;2023-03-16T22:24:35;98990.66;;;-1.19;100.00
33781;BME280;20097;50.832;19.100;2023-03-16T22:29:39;98978.25;;;-1.11;100.00
33781;BME280;20097;50.832;19.100;2023-03-16T22:34:48;98972.88;;;-1.07;100.00
33781;BME280;20097;50.832;19.100;2023-03-16T22:39:54;98977.91;;;-1.05;100.00
33781;BME280;20097;50.832;19.100;2023-03-16T22:45:00;98981.31;;;-1.05;100.00
33781;BME280;20097;50.832;19.100;2023-03-16T22:50:09;98979.66;;;-1.06;100.00
33781;BME280;20097;50.832;19.100;2023-03-16T22:55:17;98974.69;;;-1.09;100.00
33781;BME280;20097;50.832;19.100;2023-03-16T23:00:22;98970.56;;;-1.11;100.00
33781;BME280;20097;50.832;19.100;2023-03-16T23:05:32;98978.25;;;-1.11;100.00
33781;BME280;20097;50.832;19.100;2023-03-16T23:10:36;98972.47;;;-1.15;100.00
33781;BME280;20097;50.832;19.100;2023-03-16T23:15:41;98986.78;;;-1.11;100.00
33781;BME280;20097;50.832;19.100;2023-03-16T23:20:47;98988.34;;;-1.08;100.00
33781;BME280;20097;50.832;19.100;2023-03-16T23:25:51;98991.06;;;-1.11;100.00
33781;BME280;20097;50.832;19.100;2023-03-16T23:30:56;98998.34;;;-1.19;100.00
33781;BME280;20097;50.832;19.100;2023-03-16T23:36:01;99000.31;;;-1.24;100.00
33781;BME280;20097;50.832;19.100;2023-03-16T23:41:05;98999.97;;;-1.18;100.00
33781;BME280;20097;50.832;19.100;2023-03-16T23:46:10;98999.91;;;-1.17;100.00
33781;BME280;20097;50.832;19.100;2023-03-16T23:51:19;99011.72;;;-1.14;100.00
33781;BME280;20097;50.832;19.100;2023-03-16T23:56:24;99011.97;;;-1.19;100.00
